Time;durP1;ratioP1;P1;durP2;ratioP2;P2;SDS_P1;SDS_P2;PMS_P1;PMS_P2;Temp;Humidity;BMP_temperature;BMP_pressure;BME280_temperature;BME280_humidity;BME280_pressure;Samples;Min_cycle;Max_cycle;Signal;HPM_P1;HPM_P2
2022/01/17 00:01:06;;;;;;;;;3.33;1.33;;;;;16.00;59.32;103144.72;4971809;28;9357;-74
2022/01/17 00:03:32;;;;;;;;;2.67;2.00;;;;;16.02;59.08;103143.03;4972332;28;9236;-74
2022/01/17 00:05:57;;;;;;;;;2.00;2.00;;;;;16.01;58.92;103134.22;4972165;28;9309;-74
2022/01/17 00:08:23;;;;;;;;;3.00;2.00;;;;;16.00;58.94;103145.63;4971692;28;9227;-74
2022/01/17 00:10:49;;;;;;;;;4.00;3.00;;;;;15.98;59.05;103134.13;4972210;28;8816;-73
2022/01/17 00:13:23;;;;;;;;;2.00;2.00;;;;;15.99;58.67;103148.19;4972060;28;8843;-74
2022/01/17 00:15:54;;;;;;;;;2.00;2.00;;;;;16.03;58.75;103150.09;4972003;28;9291;-74
2022/01/17 00:18:27;;;;;;;;;2.25;1.50;;;;;15.95;59.04;103152.44;4972389;28;9419;-74
2022/01/17 00:20:52;;;;;;;;;3.33;3.33;;;;;15.97;58.67;103160.44;4971279;28;9514;-74
2022/01/17 00:23:17;;;;;;;;;2.33;2.33;;;;;15.97;58.59;103160.44;4972376;28;9383;-73
2022/01/17 00:25:43;;;;;;;;;3.33;3.33;;;;;15.94;58.36;103158.56;4972150;28;8899;-72
2022/01/17 00:28:08;;;;;;;;;2.67;2.67;;;;;15.95;58.98;103169.16;4970793;28;8796;-73
2022/01/17 00:30:34;;;;;;;;;5.33;4.00;;;;;15.95;58.25;103161.25;4957564;28;8811;-74
2022/01/17 00:32:59;;;;;;;;;1.67;1.00;;;;;15.93;58.49;103162.91;4952452;29;8819;-73
2022/01/17 00:35:25;;;;;;;;;3.00;3.00;;;;;15.99;58.54;103156.09;4952128;29;8811;-74
2022/01/17 00:37:51;;;;;;;;;1.67;1.67;;;;;15.98;58.53;103151.66;4952407;29;8961;-73
2022/01/17 00:40:18;;;;;;;;;2.00;2.00;;;;;16.00;58.14;103145.63;4952807;29;8814;-73
2022/01/17 00:42:43;;;;;;;;;2.00;1.00;;;;;15.93;58.41;103139.22;4951842;29;10039;-74
2022/01/17 00:45:12;;;;;;;;;2.25;2.25;;;;;15.96;57.88;103146.34;4952881;28;9305;-74
2022/01/17 00:47:38;;;;;;;;;2.00;2.00;;;;;15.96;58.12;103162.16;4952777;29;8882;-74
2022/01/17 00:50:04;;;;;;;;;2.00;2.00;;;;;15.96;58.38;103172.69;4951595;29;9386;-74
2022/01/17 00:52:29;;;;;;;;;1.00;1.00;;;;;15.96;58.16;103151.63;4952516;29;9547;-74
2022/01/17 00:54:55;;;;;;;;;1.67;0.67;;;;;15.96;58.11;103151.63;4952398;29;9198;-73
2022/01/17 00:57:20;;;;;;;;;1.33;1.33;;;;;15.94;57.84;103154.19;4952194;29;8829;-74
2022/01/17 00:59:45;;;;;;;;;1.00;1.00;;;;;15.94;58.18;103154.19;4952071;28;8795;-74
2022/01/17 01:02:10;;;;;;;;;1.00;1.00;;;;;15.94;57.81;103143.66;4955443;28;8799;-73
2022/01/17 01:04:36;;;;;;;;;1.00;1.00;;;;;15.95;57.94;103139.28;4955411;28;8811;-72
2022/01/17 01:07:01;;;;;;;;;2.25;2.25;;;;;15.92;57.62;103133.91;4956076;28;8881;-73
2022/01/17 01:09:31;;;;;;;;;2.00;2.00;;;;;15.94;58.20;103137.47;4956281;28;8839;-73
2022/01/17 01:11:57;;;;;;;;;1.00;1.00;;;;;15.94;57.81;103143.66;4955952;28;8897;-74
2022/01/17 01:14:22;;;;;;;;;1.00;1.00;;;;;15.93;57.75;103139.22;4956069;28;9466;-74
2022/01/17 01:16:47;;;;;;;;;1.33;1.33;;;;;16.03;57.76;103135.19;4955096;28;9571;-74
2022/01/17 01:27:39;;;;;;;;;3.00;3.00;;;;;16.00;57.77;103156.16;4955883;28;8787;-74
2022/01/17 01:27:42;;;;;;;;;2.00;2.00;;;;;16.01;57.69;103175.50;4955950;28;9922;-74
2022/01/17 01:30:10;;;;;;;;;1.00;1.00;;;;;16.03;57.53;103174.72;4957264;28;9452;-74
2022/01/17 01:32:44;;;;;;;;;2.00;2.00;;;;;16.02;57.56;103172.00;4955380;28;9280;-74
2022/01/17 01:35:12;;;;;;;;;1.00;1.00;;;;;16.02;57.72;103174.63;4955871;28;9270;-74
2022/01/17 01:37:37;;;;;;;;;0.33;0.33;;;;;16.01;57.51;103189.56;4955556;28;9398;-74
2022/01/17 01:40:04;;;;;;;;;3.00;2.00;;;;;15.98;57.52;103191.19;4955165;28;9395;-74
2022/01/17 01:42:33;;;;;;;;;0.67;0.67;;;;;15.97;57.38;103178.88;4965346;23;8876;-73
2022/01/17 01:45:05;;;;;;;;;2.33;0.67;;;;;15.98;57.45;103191.19;4974276;28;9202;-73
2022/01/17 01:47:30;;;;;;;;;3.33;2.00;;;;;15.96;57.10;103193.78;4974805;28;9269;-73
2022/01/17 01:49:56;;;;;;;;;1.00;1.00;;;;;15.97;57.43;103198.22;4974382;28;9152;-74
2022/01/17 01:52:21;;;;;;;;;2.67;2.67;;;;;15.97;57.58;103192.94;4974334;28;8871;-73
2022/01/17 01:54:46;;;;;;;;;1.00;1.00;;;;;16.02;56.99;103190.44;4974661;28;8788;-73
2022/01/17 01:57:12;;;;;;;;;4.67;0.33;;;;;15.98;57.23;103173.63;4974638;28;8911;-73
2022/01/17 01:59:38;;;;;;;;;1.00;1.00;;;;;16.02;57.07;103186.09;4974117;28;8797;-73
2022/01/17 02:02:05;;;;;;;;;1.00;1.00;;;;;15.98;57.32;103188.53;4974459;28;8812;-73
2022/01/17 02:04:31;;;;;;;;;1.00;1.00;;;;;15.96;56.82;103188.50;4974459;28;9124;-73
2022/01/17 02:06:56;;;;;;;;;1.33;1.33;;;;;15.98;57.17;103201.72;4973885;28;9235;-73
2022/01/17 02:09:23;;;;;;;;;1.33;0.33;;;;;15.98;57.15;103180.63;4974723;28;8824;-73
2022/01/17 02:11:50;;;;;;;;;3.00;0.67;;;;;15.96;57.18;103172.69;4974206;28;8780;-73
2022/01/17 02:14:15;;;;;;;;;0.00;0.00;;;;;15.92;56.94;103162.88;4973873;28;9291;-73
2022/01/17 02:16:43;;;;;;;;;0.67;0.00;;;;;15.95;57.02;103155.09;4974075;28;9195;-73
2022/01/17 02:19:09;;;;;;;;;1.67;1.00;;;;;15.92;57.32;103158.50;4974458;28;8930;-73
2022/01/17 02:21:45;;;;;;;;;1.33;1.33;;;;;15.91;57.15;103167.25;4973716;28;10125;-74
2022/01/17 02:24:14;;;;;;;;;0.67;0.33;;;;;15.97;57.08;103179.78;4974245;28;8832;-74
2022/01/17 02:26:39;;;;;;;;;1.00;1.00;;;;;15.98;56.72;103188.53;4973998;28;9189;-74
2022/01/17 02:29:06;;;;;;;;;1.00;1.00;;;;;15.93;57.23;103180.50;4970879;28;9303;-74
2022/01/17 02:31:32;;;;;;;;;0.33;0.33;;;;;15.95;57.12;103178.78;4955160;28;8779;-73
2022/01/17 02:33:57;;;;;;;;;0.33;0.33;;;;;15.94;57.16;103177.91;4954006;28;9179;-74
2022/01/17 02:36:23;;;;;;;;;2.00;2.00;;;;;15.95;56.88;103186.69;4954855;28;9211;-74
2022/01/17 02:38:49;;;;;;;;;0.00;0.00;;;;;15.94;57.47;103191.06;4954784;28;8814;-74
2022/01/17 02:41:15;;;;;;;;;2.33;1.33;;;;;15.90;56.98;103194.44;4954186;28;9274;-74
2022/01/17 02:43:41;;;;;;;;;1.00;0.67;;;;;15.86;57.26;103184.63;4954028;28;9275;-74
2022/01/17 02:48:34;;;;;;;;;0.67;0.67;;;;;15.91;57.36;103180.41;4953905;28;9288;-73
2022/01/17 02:51:01;;;;;;;;;1.00;0.67;;;;;15.87;57.25;103188.16;4954440;28;8791;-75
2022/01/17 02:53:27;;;;;;;;;2.00;0.33;;;;;15.87;57.46;103189.06;4954795;28;9362;-73
2022/01/17 02:55:58;;;;;;;;;1.00;1.00;;;;;15.90;57.47;103183.88;4953548;28;9220;-75
2022/01/17 02:58:26;;;;;;;;;1.00;1.00;;;;;15.91;57.26;103185.69;4954407;28;8798;-73
2022/01/17 03:00:54;;;;;;;;;0.67;0.67;;;;;15.90;57.16;103196.16;4953861;28;9978;-73
2022/01/17 03:03:26;;;;;;;;;1.00;1.00;;;;;15.85;57.37;103193.38;4953687;28;9185;-73
2022/01/17 03:05:52;;;;;;;;;1.00;1.00;;;;;15.87;57.32;103202.22;4953680;28;9444;-73
2022/01/17 03:08:22;;;;;;;;;0.67;0.67;;;;;15.90;57.66;103196.16;4954187;28;9267;-73
2022/01/17 03:10:48;;;;;;;;;1.67;1.00;;;;;15.90;57.51;103189.16;4953303;28;9311;-73
2022/01/17 03:13:19;;;;;;;;;0.00;0.00;;;;;15.91;57.27;103185.69;4953919;28;10056;-74
2022/01/17 03:15:47;;;;;;;;;1.00;0.00;;;;;15.94;57.44;103188.44;4953649;28;11429;-74
2022/01/17 03:18:13;;;;;;;;;1.00;1.00;;;;;15.87;57.52;103185.50;4953380;28;9181;-74
2022/01/17 03:20:38;;;;;;;;;2.00;1.00;;;;;15.87;57.62;103177.63;4954108;28;9264;-74
2022/01/17 03:23:07;;;;;;;;;0.00;0.00;;;;;15.85;57.44;103174.94;4953601;28;8787;-74
2022/01/17 03:25:33;;;;;;;;;1.00;1.00;;;;;15.87;57.60;103167.97;4953181;28;8811;-73
2022/01/17 03:27:59;;;;;;;;;1.00;1.00;;;;;15.88;57.45;103171.50;4953528;28;9769;-73
2022/01/17 03:30:24;;;;;;;;;1.00;1.00;;;;;15.89;57.20;103165.41;4954601;28;8831;-73
2022/01/17 03:32:50;;;;;;;;;0.67;0.67;;;;;15.89;57.38;103163.69;4953288;28;8795;-74
2022/01/17 03:35:17;;;;;;;;;1.67;1.00;;;;;15.87;57.17;103162.72;4953773;28;8791;-74
2022/01/17 03:37:44;;;;;;;;;1.33;1.00;;;;;15.87;57.64;103173.25;4952483;28;9263;-74
2022/01/17 03:40:10;;;;;;;;;1.00;1.00;;;;;15.86;57.25;103176.72;4953868;28;9270;-74
2022/01/17 03:42:36;;;;;;;;;0.00;0.00;;;;;15.83;57.32;103181.88;4953339;28;9234;-74
2022/01/17 03:45:07;;;;;;;;;1.00;1.00;;;;;15.87;57.55;103167.06;4952409;28;9100;-74
2022/01/17 03:47:32;;;;;;;;;0.33;0.33;;;;;15.86;57.41;103158.28;4953599;28;8809;-74
2022/01/17 03:49:58;;;;;;;;;0.67;0.67;;;;;15.80;57.54;103157.16;4953188;28;9311;-74
2022/01/17 03:52:23;;;;;;;;;1.67;1.67;;;;;15.86;57.15;103167.91;4952785;28;8799;-74
2022/01/17 03:54:48;;;;;;;;;1.00;1.00;;;;;15.87;57.26;103165.34;4953248;28;8803;-75
2022/01/17 03:57:13;;;;;;;;;1.00;0.67;;;;;15.83;57.46;103160.78;4953270;28;8798;-73
2022/01/17 03:59:39;;;;;;;;;2.00;1.67;;;;;15.81;57.34;103159.88;5022229;23;8860;-73
2022/01/17 04:02:04;;;;;;;;;2.00;1.00;;;;;15.82;57.34;103163.41;4972738;28;8817;-73
2022/01/17 04:04:30;;;;;;;;;2.00;2.00;;;;;15.84;57.32;103166.97;4972593;28;8863;-71
2022/01/17 04:06:55;;;;;;;;;0.00;0.00;;;;;15.83;57.55;103171.34;4971586;28;8796;-72
2022/01/17 04:09:20;;;;;;;;;1.33;1.33;;;;;15.79;57.63;103164.16;4972631;28;8836;-72
2022/01/17 04:11:45;;;;;;;;;2.33;1.33;;;;;15.82;57.61;103174.81;4971962;28;8854;-72
2022/01/17 04:14:11;;;;;;;;;1.00;1.00;;;;;15.82;57.85;103189.75;4971951;28;8815;-72
2022/01/17 04:16:36;;;;;;;;;2.00;1.00;;;;;15.83;57.40;103189.78;4972303;28;8793;-72
2022/01/17 04:19:02;;;;;;;;;1.00;1.00;;;;;15.83;57.69;103186.25;4972321;28;8811;-72
2022/01/17 04:21:33;;;;;;;;;0.33;0.33;;;;;15.83;57.47;103194.13;4971705;28;8804;-72
2022/01/17 04:23:59;;;;;;;;;0.00;0.00;;;;;15.81;57.28;103198.47;4972102;28;9196;-72
2022/01/17 04:26:24;;;;;;;;;2.00;1.00;;;;;15.79;57.65;103201.03;4972905;28;9126;-72
2022/01/17 04:28:50;;;;;;;;;2.00;2.00;;;;;15.81;57.29;103209.00;4971209;28;8894;-73
2022/01/17 04:31:15;;;;;;;;;2.00;2.00;;;;;15.80;57.61;103208.09;4972355;28;8907;-72
2022/01/17 04:33:40;;;;;;;;;1.00;1.00;;;;;15.79;57.24;103208.03;4971459;28;8788;-73
2022/01/17 04:36:08;;;;;;;;;0.00;0.00;;;;;15.81;57.14;103206.38;4973633;28;8895;-73
2022/01/17 04:38:34;;;;;;;;;2.67;2.67;;;;;15.80;57.20;103197.56;4976151;28;8908;-73
2022/01/17 04:41:05;;;;;;;;;1.00;1.00;;;;;15.80;57.34;103197.56;4974935;28;9456;-73
2022/01/17 04:46:04;;;;;;;;;1.00;1.00;;;;;15.80;57.34;103188.75;4975834;28;9267;-73
2022/01/17 04:48:30;;;;;;;;;1.00;1.00;;;;;15.78;57.26;103196.59;4975439;28;9128;-73
2022/01/17 04:50:55;;;;;;;;;3.00;2.00;;;;;15.79;57.46;103194.88;4975799;28;9145;-73
2022/01/17 04:53:21;;;;;;;;;1.67;1.00;;;;;15.79;57.26;103197.50;4976156;28;8800;-73
2022/01/17 04:55:48;;;;;;;;;2.00;2.00;;;;;15.78;57.26;103201.88;4975154;28;8788;-73
2022/01/17 04:58:13;;;;;;;;;1.00;1.00;;;;;15.76;57.40;103200.91;4975764;28;9163;-73
2022/01/17 05:00:46;;;;;;;;;1.67;1.67;;;;;15.79;57.24;103202.75;4975837;28;9357;-73
2022/01/17 05:03:13;;;;;;;;;1.00;1.00;;;;;15.78;57.29;103209.75;4975056;28;8800;-73
2022/01/17 05:05:41;;;;;;;;;1.67;1.67;;;;;15.78;57.22;103206.25;4975490;28;10105;-73
2022/01/17 05:08:09;;;;;;;;;1.00;1.00;;;;;15.77;57.19;103204.47;4975593;28;9929;-72
2022/01/17 05:10:35;;;;;;;;;2.00;1.00;;;;;15.77;57.32;103210.63;4974694;28;9407;-72
2022/01/17 05:13:01;;;;;;;;;3.00;2.00;;;;;15.75;57.27;103214.91;4975480;28;9205;-72
2022/01/17 05:15:34;;;;;;;;;1.00;1.00;;;;;15.79;57.18;103213.31;4975425;28;8827;-72
2022/01/17 05:20:40;;;;;;;;;3.00;1.67;;;;;15.79;57.15;103218.56;4975526;28;9325;-73
2022/01/17 05:23:06;;;;;;;;;1.00;1.00;;;;;15.78;56.98;103219.44;4974924;28;9128;-73
2022/01/17 05:25:35;;;;;;;;;2.00;2.00;;;;;15.75;57.36;103217.56;4975418;28;8965;-72
2022/01/17 05:28:00;;;;;;;;;2.00;1.67;;;;;15.73;57.43;103221.88;4975257;28;8867;-72
2022/01/17 05:30:25;;;;;;;;;2.00;2.00;;;;;15.77;56.95;103218.53;4974571;28;9245;-72
2022/01/17 05:32:52;;;;;;;;;2.00;1.00;;;;;15.75;57.10;103222.81;4974857;28;8874;-73
2022/01/17 05:35:18;;;;;;;;;2.00;2.00;;;;;15.74;57.29;103207.88;4975382;28;8919;-73
2022/01/17 05:37:45;;;;;;;;;2.00;2.00;;;;;15.78;57.30;103208.91;4974418;28;9334;-73
2022/01/17 05:40:13;;;;;;;;;2.00;2.00;;;;;15.78;57.09;103193.09;4975157;28;9294;-73
2022/01/17 05:42:39;;;;;;;;;2.00;1.00;;;;;15.78;57.00;103207.13;4975111;28;9145;-73
2022/01/17 05:45:06;;;;;;;;;2.33;2.00;;;;;15.79;57.04;103194.88;4974213;28;9413;-73
2022/01/17 05:47:32;;;;;;;;;3.00;3.00;;;;;15.75;57.35;103195.59;4974298;28;9199;-72
2022/01/17 05:49:59;;;;;;;;;4.00;4.00;;;;;15.75;56.89;103198.22;4974376;28;9214;-73
2022/01/17 05:52:24;;;;;;;;;3.00;3.00;;;;;15.78;57.29;103201.00;4974427;28;8792;-73
2022/01/17 05:54:50;;;;;;;;;4.00;4.00;;;;;15.78;57.25;103206.25;4974595;28;9201;-73
2022/01/17 05:57:17;;;;;;;;;3.00;3.00;;;;;15.81;57.22;103207.28;4974815;28;8801;-73
2022/01/17 05:59:42;;;;;;;;;3.67;3.67;;;;;15.78;56.96;103217.66;4973487;28;9675;-73
2022/01/17 06:02:08;;;;;;;;;3.25;3.25;;;;;15.76;57.00;103223.72;4974650;28;9331;-73
2022/01/17 06:04:33;;;;;;;;;4.00;4.00;;;;;15.76;57.03;103223.72;4974652;28;8800;-73
2022/01/17 06:06:58;;;;;;;;;3.00;3.00;;;;;15.79;57.11;103223.84;4973798;28;9241;-73
2022/01/17 06:09:24;;;;;;;;;3.00;3.00;;;;;15.85;60.57;103234.63;4974373;28;8950;-75
2022/01/17 06:11:49;;;;;;;;;8.25;6.00;;;;;15.92;61.75;103248.09;4974395;28;8820;-74
2022/01/17 06:14:17;;;;;;;;;7.50;5.75;;;;;16.09;60.76;103245.16;4973849;28;8886;-74
2022/01/17 06:16:44;;;;;;;;;6.00;5.00;;;;;16.11;61.16;103247.03;4974201;28;8785;-74
2022/01/17 06:19:10;;;;;;;;;6.50;6.50;;;;;16.19;62.81;103245.59;4973711;28;9591;-75
2022/01/17 06:21:35;;;;;;;;;10.00;8.50;;;;;16.28;63.92;103240.63;4974507;28;9610;-74
2022/01/17 06:24:02;;;;;;;;;7.50;6.25;;;;;16.39;66.00;103244.56;4974021;28;9513;-74
2022/01/17 06:26:28;;;;;;;;;12.50;9.75;;;;;16.47;64.97;103254.47;4973635;28;8800;-74
2022/01/17 06:28:53;;;;;;;;;8.75;7.25;;;;;16.57;64.16;103252.25;4973695;28;9622;-75
2022/01/17 06:31:18;;;;;;;;;10.25;10.00;;;;;16.61;66.63;103251.53;4974034;28;8800;-74
2022/01/17 06:33:43;;;;;;;;;12.00;10.75;;;;;16.55;67.64;103258.28;4972192;28;8868;-73
2022/01/17 06:36:09;;;;;;;;;7.00;6.75;;;;;16.50;68.51;103254.59;4973973;28;8863;-77
2022/01/17 06:38:34;;;;;;;;;10.00;10.00;;;;;16.47;67.65;103255.38;4974343;28;8812;-73
2022/01/17 06:40:59;;;;;;;;;7.50;7.50;;;;;16.42;68.28;103259.63;4972868;28;8804;-73
2022/01/17 06:43:25;;;;;;;;;5.75;5.75;;;;;16.40;67.94;103256.91;4973994;28;8792;-74
2022/01/17 06:45:50;;;;;;;;;11.00;8.75;;;;;16.39;67.98;103243.66;4973671;28;8804;-73
2022/01/17 06:48:15;;;;;;;;;9.50;7.75;;;;;16.37;67.45;103254.16;4973154;28;8800;-74
2022/01/17 06:50:41;;;;;;;;;9.00;9.00;;;;;16.35;67.80;103258.47;4973600;28;8839;-74
2022/01/17 06:53:06;;;;;;;;;9.00;8.25;;;;;16.36;67.63;103265.53;4973775;28;8792;-74
2022/01/17 06:55:32;;;;;;;;;12.00;11.00;;;;;16.32;67.69;103274.19;4972981;28;9658;-74
2022/01/17 06:57:57;;;;;;;;;9.50;9.25;;;;;16.28;67.49;103269.63;4972993;28;8776;-74
2022/01/17 07:00:22;;;;;;;;;8.00;8.00;;;;;16.28;67.25;103274.91;4972966;28;8851;-74
2022/01/17 07:02:48;;;;;;;;;6.25;6.25;;;;;16.27;67.00;103269.59;4972542;28;8816;-74
2022/01/17 07:05:13;;;;;;;;;6.00;5.75;;;;;16.29;66.98;103310.09;4973633;28;8823;-74
2022/01/17 07:07:39;;;;;;;;;9.75;6.75;;;;;16.31;66.45;103329.47;4973721;28;8849;-74
2022/01/17 07:10:05;;;;;;;;;5.50;5.50;;;;;16.27;66.38;103331.09;4973033;28;8875;-74
2022/01/17 07:12:30;;;;;;;;;10.25;3.75;;;;;16.26;66.00;103325.78;4973397;28;8923;-74
2022/01/17 07:14:56;;;;;;;;;6.50;6.50;;;;;16.21;66.09;103314.16;4973100;28;9558;-74
2022/01/17 07:17:26;;;;;;;;;10.50;8.00;;;;;16.22;65.80;103316.88;4972711;28;8971;-74
2022/01/17 07:19:52;;;;;;;;;10.00;6.00;;;;;16.25;65.67;103308.16;4973065;28;8796;-74
2022/01/17 07:22:17;;;;;;;;;6.75;5.50;;;;;16.21;65.82;103300.97;4972771;28;9487;-74
2022/01/17 07:24:44;;;;;;;;;5.00;5.00;;;;;16.22;64.94;103292.25;4972680;28;8780;-74
2022/01/17 07:27:10;;;;;;;;;6.00;4.50;;;;;16.23;65.34;103297.56;4973372;28;8899;-74
2022/01/17 07:29:35;;;;;;;;;8.25;8.00;;;;;16.21;64.79;103319.44;4972092;28;9726;-74
2022/01/17 07:32:00;;;;;;;;;4.33;4.33;;;;;16.23;64.66;103323.03;4972822;28;8793;-74
2022/01/17 07:34:28;;;;;;;;;6.00;5.50;;;;;16.22;64.46;103324.78;4973125;28;8932;-74
2022/01/17 07:36:54;;;;;;;;;5.50;4.75;;;;;16.23;64.32;103347.63;4971986;28;8788;-74
2022/01/17 07:39:20;;;;;;;;;5.50;4.50;;;;;16.19;63.82;103340.47;4972450;28;9566;-75
2022/01/17 07:41:45;;;;;;;;;8.00;5.25;;;;;16.23;63.96;103352.03;4972187;28;9441;-74
2022/01/17 07:44:19;;;;;;;;;5.50;4.75;;;;;16.23;63.71;103345.00;4972115;28;8792;-75
2022/01/17 07:46:55;;;;;;;;;6.00;5.00;;;;;16.22;63.63;103345.88;4972497;28;8788;-74
2022/01/17 07:49:21;;;;;;;;;4.00;4.00;;;;;16.22;63.52;103348.50;4972560;28;9398;-74
2022/01/17 07:51:51;;;;;;;;;4.50;4.50;;;;;16.21;63.54;103340.53;4971923;28;9418;-74
2022/01/17 07:54:18;;;;;;;;;4.00;4.00;;;;;16.19;63.13;103344.84;4972550;28;9497;-74
2022/01/17 07:56:43;;;;;;;;;7.00;5.67;;;;;16.17;63.29;103342.13;4972173;28;9436;-74
2022/01/17 07:59:10;;;;;;;;;5.67;5.33;;;;;16.18;62.89;103351.84;4971758;28;9327;-74
2022/01/17 08:01:37;;;;;;;;;4.00;4.00;;;;;16.19;62.79;103358.03;4972325;28;8832;-74
2022/01/17 08:04:04;;;;;;;;;5.75;5.50;;;;;16.15;62.59;103358.75;4972191;28;9498;-74
2022/01/17 08:06:30;;;;;;;;;5.00;5.00;;;;;16.16;62.43;103365.81;4971734;28;9495;-74
2022/01/17 08:08:58;;;;;;;;;5.00;5.00;;;;;16.11;62.30;103357.72;4971948;28;9494;-74
2022/01/17 08:11:24;;;;;;;;;5.33;4.00;;;;;16.12;62.59;103364.78;4972032;28;12328;-74
2022/01/17 08:13:49;;;;;;;;;6.00;4.00;;;;;16.13;62.23;103368.31;4971268;28;9453;-74
2022/01/17 08:16:15;;;;;;;;;6.00;3.75;;;;;16.17;62.34;103367.59;4972656;28;8820;-74
2022/01/17 08:18:43;;;;;;;;;6.00;5.00;;;;;16.12;62.08;103358.63;4971399;28;9548;-74
2022/01/17 08:21:09;;;;;;;;;4.00;4.00;;;;;16.08;62.04;103364.63;4972608;28;8804;-74
2022/01/17 08:23:36;;;;;;;;;3.50;3.50;;;;;16.13;62.04;103368.31;4972342;28;10140;-74
2022/01/17 08:26:02;;;;;;;;;5.50;5.00;;;;;16.09;61.82;103356.75;4971185;28;8808;-74
2022/01/17 08:28:27;;;;;;;;;5.00;4.00;;;;;16.07;61.53;103357.53;4972355;28;9503;-74
2022/01/17 08:30:52;;;;;;;;;4.33;3.00;;;;;16.11;61.60;103356.81;4971737;28;9576;-74
2022/01/17 08:33:17;;;;;;;;;3.33;3.33;;;;;16.08;61.49;103365.53;4971617;28;8922;-74
2022/01/17 08:35:43;;;;;;;;;4.00;4.00;;;;;16.08;61.50;103364.63;4971863;28;8945;-74
2022/01/17 08:38:08;;;;;;;;;4.25;4.00;;;;;16.08;61.38;103365.53;4972378;28;8785;-74
2022/01/17 08:40:33;;;;;;;;;3.33;3.33;;;;;16.09;60.94;103366.41;4971710;28;8906;-74
2022/01/17 08:42:59;;;;;;;;;3.33;3.33;;;;;16.08;60.95;103359.34;4971986;28;8887;-74
2022/01/17 08:45:26;;;;;;;;;4.50;4.00;;;;;16.06;61.20;103359.28;4972194;28;9566;-73
2022/01/17 08:47:54;;;;;;;;;4.67;3.67;;;;;16.08;60.92;103362.88;4971089;28;8804;-73
2022/01/17 08:50:22;;;;;;;;;4.50;4.00;;;;;16.07;60.93;103368.09;4971820;28;9308;-73
2022/01/17 08:52:48;;;;;;;;;3.00;3.00;;;;;16.06;60.90;103376.81;4973196;28;9463;-73
2022/01/17 08:55:15;;;;;;;;;3.50;2.50;;;;;16.07;60.76;103378.63;4975213;28;9287;-73
2022/01/17 08:57:40;;;;;;;;;3.00;3.00;;;;;16.07;60.67;103379.53;4975477;28;8792;-73
2022/01/17 09:00:10;;;;;;;;;3.00;3.00;;;;;16.07;60.61;103383.91;4974986;28;9485;-73
2022/01/17 09:02:39;;;;;;;;;3.00;3.00;;;;;16.05;60.55;103381.19;4974816;28;8820;-73
2022/01/17 09:05:04;;;;;;;;;4.00;4.00;;;;;16.05;60.61;103382.91;4975423;28;9360;-73
2022/01/17 09:07:29;;;;;;;;;3.75;3.00;;;;;16.02;60.58;103385.44;4975540;28;10264;-74
2022/01/17 09:09:55;;;;;;;;;4.00;4.00;;;;;16.02;60.14;103385.44;4973761;28;8844;-73
2022/01/17 09:12:20;;;;;;;;;3.67;2.67;;;;;16.04;60.35;103389.97;4974587;28;8796;-73
2022/01/17 09:14:45;;;;;;;;;3.00;3.00;;;;;16.04;60.48;103394.31;4975357;28;8915;-73
2022/01/17 09:17:11;;;;;;;;;3.00;2.00;;;;;16.04;60.23;103410.13;4974033;28;8796;-74
2022/01/17 09:19:42;;;;;;;;;2.00;2.00;;;;;16.03;60.06;103409.22;4971549;28;9564;-73
2022/01/17 09:22:08;;;;;;;;;4.33;2.00;;;;;16.04;60.11;103412.78;4972097;28;10225;-74
2022/01/17 09:24:35;;;;;;;;;3.67;3.67;;;;;16.03;59.98;103424.13;4975475;28;9273;-73
2022/01/17 09:27:01;;;;;;;;;2.00;2.00;;;;;16.02;59.94;103420.59;4975144;28;9386;-73
2022/01/17 09:29:26;;;;;;;;;4.67;2.67;;;;;16.01;59.85;103428.47;4974308;28;9139;-73
2022/01/17 09:31:51;;;;;;;;;4.67;4.67;;;;;16.05;59.77;103430.34;4974623;28;8792;-74
2022/01/17 09:34:17;;;;;;;;;2.33;2.33;;;;;15.98;59.76;103430.94;4975496;28;8788;-74
2022/01/17 09:36:45;;;;;;;;;2.00;2.00;;;;;16.02;59.78;103438.13;4975361;23;8919;-73
2022/01/17 09:39:10;;;;;;;;;2.33;2.33;;;;;16.03;59.79;103432.94;4955852;28;8803;-73
2022/01/17 09:41:36;;;;;;;;;0.00;0.00;;;;;16.01;59.75;103429.34;4955991;28;9357;-73
2022/01/17 09:44:04;;;;;;;;;5.00;4.00;;;;;15.99;59.86;103424.84;4955000;28;8777;-74
2022/01/17 09:46:35;;;;;;;;;2.00;2.00;;;;;16.00;59.71;103443.38;4955870;28;8799;-73
2022/01/17 09:49:14;;;;;;;;;4.00;2.75;;;;;16.01;59.85;103441.63;4955529;28;9364;-74
2022/01/17 09:54:27;;;;;;;;;3.75;2.50;;;;;15.99;59.45;103444.19;4955915;28;9577;-73
2022/01/17 09:56:57;;;;;;;;;4.50;3.50;;;;;16.02;59.58;103446.03;4955475;28;9414;-73
2022/01/17 09:59:23;;;;;;;;;3.00;3.00;;;;;16.01;59.27;103453.03;4954655;28;9430;-74
2022/01/17 10:01:49;;;;;;;;;3.67;3.00;;;;;15.97;59.41;103452.88;4955360;28;9420;-75
2022/01/17 10:04:16;;;;;;;;;3.33;2.00;;;;;15.97;59.24;103469.59;4954766;28;9027;-74
2022/01/17 10:06:43;;;;;;;;;2.33;2.33;;;;;16.02;59.21;103475.94;4954919;28;9113;-74
2022/01/17 10:09:10;;;;;;;;;2.00;2.00;;;;;16.00;59.35;103469.72;4955141;28;9055;-74
2022/01/17 10:11:35;;;;;;;;;4.00;2.00;;;;;15.98;59.49;103481.00;4954758;28;9007;-74
2022/01/17 10:14:01;;;;;;;;;5.00;2.67;;;;;15.98;59.44;103478.38;4954995;28;9082;-74
2022/01/17 10:16:31;;;;;;;;;3.00;2.00;;;;;16.00;59.26;103466.19;4955037;28;9529;-73
2022/01/17 10:19:02;;;;;;;;;2.00;1.00;;;;;15.95;59.16;103477.44;4954439;28;8807;-74
2022/01/17 10:21:34;;;;;;;;;2.00;2.00;;;;;16.01;59.23;103478.53;4955196;28;9196;-73
2022/01/17 10:24:13;;;;;;;;;2.33;2.00;;;;;16.00;59.15;103482.91;4954787;28;9453;-73
2022/01/17 10:37:13;;;;;;;;;2.00;2.00;;;;;16.01;59.27;103496.97;4954573;28;9334;-73
2022/01/17 10:39:53;;;;;;;;;2.67;1.00;;;;;15.97;59.06;103485.41;4953990;28;9189;-73
2022/01/17 10:42:28;;;;;;;;;4.00;2.67;;;;;16.01;59.22;103502.25;4954711;28;9262;-74
2022/01/17 10:44:59;;;;;;;;;1.33;1.33;;;;;15.99;59.08;103494.25;4954920;28;9372;-74
2022/01/17 10:47:27;;;;;;;;;2.00;2.00;;;;;16.01;59.17;103489.06;4953581;28;9188;-73
2022/01/17 10:50:05;;;;;;;;;3.67;2.67;;;;;16.02;59.25;103488.22;4954356;28;10064;-74
2022/01/17 10:52:47;;;;;;;;;2.67;1.67;;;;;16.03;59.11;103505.81;4954709;28;9336;-73
2022/01/17 10:55:23;;;;;;;;;3.00;2.00;;;;;16.03;58.93;103492.66;4953878;28;9200;-73
2022/01/17 10:57:53;;;;;;;;;1.00;1.00;;;;;16.09;58.73;103503.44;4953998;28;9357;-73
2022/01/17 11:00:24;;;;;;;;;1.00;1.00;;;;;16.07;58.45;103503.38;4954174;28;9171;-73
2022/01/17 11:02:53;;;;;;;;;2.00;1.00;;;;;16.07;58.65;103503.38;4954165;28;9199;-73
2022/01/17 11:05:21;;;;;;;;;5.00;2.25;;;;;16.11;58.58;103507.94;4954120;28;9966;-73
2022/01/17 11:07:49;;;;;;;;;1.00;1.00;;;;;16.12;58.61;103503.59;4953208;28;9572;-73
2022/01/17 11:10:22;;;;;;;;;2.00;2.00;;;;;16.14;58.47;103521.25;4954194;28;9211;-74
2022/01/17 11:12:50;;;;;;;;;2.33;2.33;;;;;16.14;58.76;103525.63;4953984;28;9367;-73
2022/01/17 11:15:18;;;;;;;;;3.00;2.00;;;;;16.14;58.65;103528.25;4953382;28;9352;-73
2022/01/17 11:17:50;;;;;;;;;1.33;1.33;;;;;16.10;58.62;103506.16;4953773;28;9266;-74
2022/01/17 11:20:18;;;;;;;;;4.33;2.00;;;;;16.16;58.42;103522.19;4954075;28;9278;-73
2022/01/17 11:22:47;;;;;;;;;1.33;1.33;;;;;16.14;58.21;103518.63;4953113;28;9150;-74
2022/01/17 11:25:22;;;;;;;;;2.67;2.67;;;;;16.15;58.61;103520.41;4954214;28;9113;-73
2022/01/17 11:27:51;;;;;;;;;1.00;1.00;;;;;16.17;58.38;103521.38;4954066;28;9277;-74
2022/01/17 11:30:17;;;;;;;;;1.00;1.00;;;;;16.21;58.54;103525.03;4952847;28;9305;-73
2022/01/17 11:32:45;;;;;;;;;2.67;2.00;;;;;16.20;58.34;103531.13;4953566;28;9408;-74
2022/01/17 11:35:13;;;;;;;;;3.00;3.00;;;;;16.19;58.23;103529.34;4953737;28;8840;-74
2022/01/17 11:37:41;;;;;;;;;2.00;2.00;;;;;16.20;58.21;103534.66;4952644;28;10508;-73
2022/01/17 11:40:09;;;;;;;;;1.67;1.00;;;;;16.19;58.41;103526.72;4953559;28;10215;-73
2022/01/17 11:42:39;;;;;;;;;1.67;1.00;;;;;16.20;58.36;103524.13;4953029;28;9191;-73
2022/01/17 11:45:24;;;;;;;;;4.67;2.00;;;;;16.21;58.36;103531.22;4953129;28;9333;-73
2022/01/17 11:47:59;;;;;;;;;2.00;2.00;;;;;16.21;58.14;103532.94;4952926;28;9416;-73
2022/01/17 11:50:27;;;;;;;;;2.00;2.00;;;;;16.20;58.39;103529.41;4952736;28;9185;-73
2022/01/17 11:53:19;;;;;;;;;1.00;1.00;;;;;16.20;58.60;103541.66;4953251;28;9187;-73
2022/01/17 11:55:46;;;;;;;;;1.75;1.00;;;;;16.20;58.42;103539.03;4952790;28;9271;-73
2022/01/17 11:58:21;;;;;;;;;2.00;2.00;;;;;16.16;58.44;103553.81;4952648;28;9329;-73